sensor_id;sensor_type;location;lat;lon;timestamp;P1;durP1;ratioP1;P2;durP2;ratioP2
57321;SDS011;43159;51.006;18.224;2023-02-15T00:06:04;22.80;;;10.30;;
57321;SDS011;43159;51.006;18.224;2023-02-15T00:16:05;25.80;;;11.20;;
57321;SDS011;43159;51.006;18.224;2023-02-15T00:25:48;28.80;;;12.50;;
57321;SDS011;43159;51.006;18.224;2023-02-15T00:35:30;31.10;;;13.20;;
57321;SDS011;43159;51.006;18.224;2023-02-15T00:45:12;24.30;;;9.20;;
57321;SDS011;43159;51.006;18.224;2023-02-15T00:54:54;26.80;;;11.50;;
57321;SDS011;43159;51.006;18.224;2023-02-15T01:04:36;26.20;;;11.50;;
57321;SDS011;43159;51.006;18.224;2023-02-15T01:14:19;18.60;;;7.20;;
57321;SDS011;43159;51.006;18.224;2023-02-15T01:24:01;32.00;;;11.80;;
57321;SDS011;43159;51.006;18.224;2023-02-15T01:33:44;33.70;;;12.90;;
57321;SDS011;43159;51.006;18.224;2023-02-15T01:43:46;18.30;;;9.00;;
57321;SDS011;43159;51.006;18.224;2023-02-15T01:53:50;18.30;;;8.50;;
57321;SDS011;43159;51.006;18.224;2023-02-15T02:03:43;14.90;;;7.00;;
57321;SDS011;43159;51.006;18.224;2023-02-15T02:13:27;22.40;;;9.70;;
57321;SDS011;43159;51.006;18.224;2023-02-15T02:33:44;20.90;;;8.30;;
57321;SDS011;43159;51.006;18.224;2023-02-15T02:43:50;22.30;;;10.10;;
57321;SDS011;43159;51.006;18.224;2023-02-15T02:53:54;23.60;;;10.40;;
57321;SDS011;43159;51.006;18.224;2023-02-15T03:04:07;19.60;;;10.00;;
57321;SDS011;43159;51.006;18.224;2023-02-15T03:14:06;21.50;;;10.00;;
57321;SDS011;43159;51.006;18.224;2023-02-15T03:24:16;26.10;;;11.50;;
57321;SDS011;43159;51.006;18.224;2023-02-15T03:34:04;16.50;;;8.20;;
57321;SDS011;43159;51.006;18.224;2023-02-15T03:44:11;20.40;;;9.10;;
57321;SDS011;43159;51.006;18.224;2023-02-15T03:54:23;29.80;;;11.60;;
57321;SDS011;43159;51.006;18.224;2023-02-15T04:05:05;25.60;;;9.00;;
57321;SDS011;43159;51.006;18.224;2023-02-15T04:15:06;13.10;;;4.90;;
57321;SDS011;43159;51.006;18.224;2023-02-15T04:25:44;13.50;;;7.20;;
57321;SDS011;43159;51.006;18.224;2023-02-15T04:35:25;21.50;;;9.50;;
57321;SDS011;43159;51.006;18.224;2023-02-15T04:45:08;18.10;;;11.00;;
57321;SDS011;43159;51.006;18.224;2023-02-15T04:54:50;22.20;;;10.00;;
57321;SDS011;43159;51.006;18.224;2023-02-15T05:04:34;19.40;;;9.30;;
57321;SDS011;43159;51.006;18.224;2023-02-15T05:14:16;19.50;;;10.40;;
57321;SDS011;43159;51.006;18.224;2023-02-15T05:23:58;23.60;;;11.00;;
57321;SDS011;43159;51.006;18.224;2023-02-15T05:33:59;23.00;;;11.80;;
57321;SDS011;43159;51.006;18.224;2023-02-15T05:43:41;22.30;;;10.10;;
57321;SDS011;43159;51.006;18.224;2023-02-15T05:53:24;29.20;;;9.60;;
57321;SDS011;43159;51.006;18.224;2023-02-15T06:03:08;16.20;;;9.00;;
57321;SDS011;43159;51.006;18.224;2023-02-15T06:12:49;29.40;;;13.00;;
57321;SDS011;43159;51.006;18.224;2023-02-15T06:22:33;31.10;;;15.70;;
57321;SDS011;43159;51.006;18.224;2023-02-15T06:32:16;29.00;;;14.30;;
57321;SDS011;43159;51.006;18.224;2023-02-15T06:41:59;33.00;;;17.20;;
57321;SDS011;43159;51.006;18.224;2023-02-15T06:51:41;33.80;;;15.60;;
57321;SDS011;43159;51.006;18.224;2023-02-15T07:01:23;29.30;;;13.20;;
57321;SDS011;43159;51.006;18.224;2023-02-15T07:11:06;44.70;;;20.90;;
57321;SDS011;43159;51.006;18.224;2023-02-15T07:21:08;37.60;;;18.30;;
57321;SDS011;43159;51.006;18.224;2023-02-15T07:30:52;24.70;;;13.00;;
57321;SDS011;43159;51.006;18.224;2023-02-15T07:40:41;38.70;;;15.30;;
57321;SDS011;43159;51.006;18.224;2023-02-15T07:50:25;33.50;;;18.00;;
57321;SDS011;43159;51.006;18.224;2023-02-15T08:00:11;29.00;;;15.00;;
57321;SDS011;43159;51.006;18.224;2023-02-15T08:09:55;39.70;;;18.00;;
57321;SDS011;43159;51.006;18.224;2023-02-15T08:19:37;34.80;;;17.90;;
57321;SDS011;43159;51.006;18.224;2023-02-15T08:29:23;30.30;;;16.50;;
57321;SDS011;43159;51.006;18.224;2023-02-15T08:39:11;26.50;;;12.60;;
57321;SDS011;43159;51.006;18.224;2023-02-15T08:48:56;26.80;;;13.60;;
57321;SDS011;43159;51.006;18.224;2023-02-15T08:58:43;43.80;;;19.80;;
57321;SDS011;43159;51.006;18.224;2023-02-15T09:08:34;43.90;;;19.30;;
57321;SDS011;43159;51.006;18.224;2023-02-15T09:18:47;48.70;;;21.70;;
57321;SDS011;43159;51.006;18.224;2023-02-15T09:28:32;48.30;;;23.40;;
57321;SDS011;43159;51.006;18.224;2023-02-15T09:38:23;58.90;;;24.70;;
57321;SDS011;43159;51.006;18.224;2023-02-15T09:48:41;46.60;;;21.60;;
57321;SDS011;43159;51.006;18.224;2023-02-15T09:59:00;33.70;;;15.70;;
57321;SDS011;43159;51.006;18.224;2023-02-15T10:10:05;70.30;;;24.60;;
57321;SDS011;43159;51.006;18.224;2023-02-15T13:01:15;28.30;;;15.60;;
57321;SDS011;43159;51.006;18.224;2023-02-15T13:11:11;32.70;;;15.40;;
57321;SDS011;43159;51.006;18.224;2023-02-15T13:31:11;31.70;;;16.10;;
57321;SDS011;43159;51.006;18.224;2023-02-15T13:41:05;32.20;;;16.60;;
57321;SDS011;43159;51.006;18.224;2023-02-15T14:22:41;26.00;;;12.00;;
57321;SDS011;43159;51.006;18.224;2023-02-15T14:32:53;30.60;;;16.70;;
57321;SDS011;43159;51.006;18.224;2023-02-15T14:43:05;28.40;;;14.40;;
57321;SDS011;43159;51.006;18.224;2023-02-15T15:03:34;25.20;;;14.80;;
57321;SDS011;43159;51.006;18.224;2023-02-15T15:13:53;32.90;;;15.00;;
57321;SDS011;43159;51.006;18.224;2023-02-15T15:45:31;31.00;;;15.40;;
57321;SDS011;43159;51.006;18.224;2023-02-15T15:55:21;23.00;;;12.20;;
57321;SDS011;43159;51.006;18.224;2023-02-15T16:05:17;26.20;;;11.90;;
57321;SDS011;43159;51.006;18.224;2023-02-15T16:15:19;30.00;;;13.00;;
57321;SDS011;43159;51.006;18.224;2023-02-15T16:25:30;26.60;;;12.60;;
57321;SDS011;43159;51.006;18.224;2023-02-15T16:35:31;35.70;;;14.70;;
57321;SDS011;43159;51.006;18.224;2023-02-15T16:45:18;30.20;;;9.10;;
57321;SDS011;43159;51.006;18.224;2023-02-15T16:55:24;40.50;;;13.50;;
57321;SDS011;43159;51.006;18.224;2023-02-15T17:05:40;32.30;;;15.80;;
57321;SDS011;43159;51.006;18.224;2023-02-15T17:25:53;24.20;;;12.00;;
57321;SDS011;43159;51.006;18.224;2023-02-15T17:35:44;29.60;;;12.60;;
57321;SDS011;43159;51.006;18.224;2023-02-15T17:45:47;31.60;;;14.60;;
57321;SDS011;43159;51.006;18.224;2023-02-15T17:55:36;36.60;;;14.00;;
57321;SDS011;43159;51.006;18.224;2023-02-15T18:06:01;48.60;;;21.50;;
57321;SDS011;43159;51.006;18.224;2023-02-15T18:16:28;41.20;;;19.00;;
57321;SDS011;43159;51.006;18.224;2023-02-15T18:26:22;36.60;;;14.70;;
57321;SDS011;43159;51.006;18.224;2023-02-15T18:36:07;42.80;;;20.60;;
57321;SDS011;43159;51.006;18.224;2023-02-15T18:45:54;55.30;;;19.40;;
57321;SDS011;43159;51.006;18.224;2023-02-15T18:55:44;51.70;;;19.80;;
57321;SDS011;43159;51.006;18.224;2023-02-15T19:05:33;50.00;;;19.00;;
57321;SDS011;43159;51.006;18.224;2023-02-15T19:15:19;42.00;;;21.80;;
57321;SDS011;43159;51.006;18.224;2023-02-15T19:25:06;43.40;;;18.00;;
57321;SDS011;43159;51.006;18.224;2023-02-15T19:34:57;48.90;;;20.30;;
57321;SDS011;43159;51.006;18.224;2023-02-15T19:44:41;43.90;;;19.50;;
57321;SDS011;43159;51.006;18.224;2023-02-15T19:54:28;33.10;;;14.20;;
57321;SDS011;43159;51.006;18.224;2023-02-15T20:04:19;49.20;;;18.10;;
57321;SDS011;43159;51.006;18.224;2023-02-15T20:14:12;36.70;;;13.80;;
57321;SDS011;43159;51.006;18.224;2023-02-15T20:23:55;42.00;;;17.00;;
57321;SDS011;43159;51.006;18.224;2023-02-15T20:33:43;41.40;;;17.00;;
57321;SDS011;43159;51.006;18.224;2023-02-15T20:43:57;34.20;;;12.90;;
57321;SDS011;43159;51.006;18.224;2023-02-15T20:53:43;44.80;;;17.30;;
57321;SDS011;43159;51.006;18.224;2023-02-15T21:03:33;41.70;;;18.60;;
57321;SDS011;43159;51.006;18.224;2023-02-15T21:23:12;30.90;;;12.90;;
57321;SDS011;43159;51.006;18.224;2023-02-15T21:33:00;39.60;;;17.30;;
57321;SDS011;43159;51.006;18.224;2023-02-15T21:40:22;78.40;;;34.40;;
57321;SDS011;43159;51.006;18.224;2023-02-15T21:50:47;46.80;;;18.60;;
57321;SDS011;43159;51.006;18.224;2023-02-15T22:00:52;41.00;;;16.60;;
57321;SDS011;43159;51.006;18.224;2023-02-15T22:10:40;30.20;;;13.40;;
57321;SDS011;43159;51.006;18.224;2023-02-15T22:20:25;46.20;;;17.60;;
57321;SDS011;43159;51.006;18.224;2023-02-15T22:40:08;38.10;;;14.30;;
57321;SDS011;43159;51.006;18.224;2023-02-15T22:49:52;55.30;;;20.70;;
57321;SDS011;43159;51.006;18.224;2023-02-15T22:59:56;60.80;;;22.20;;
57321;SDS011;43159;51.006;18.224;2023-02-15T23:09:40;62.20;;;22.60;;
57321;SDS011;43159;51.006;18.224;2023-02-15T23:19:36;42.30;;;17.80;;
57321;SDS011;43159;51.006;18.224;2023-02-15T23:29:20;56.00;;;19.10;;
57321;SDS011;43159;51.006;18.224;2023-02-15T23:39:19;53.40;;;20.20;;
57321;SDS011;43159;51.006;18.224;2023-02-15T23:49:25;52.30;;;21.80;;
57321;SDS011;43159;51.006;18.224;2023-02-15T23:59:13;42.70;;;20.00;;
